createdAt,value
2018-01-30T00:00:26.819Z,79.30
2018-01-30T00:02:54.816Z,79.40
2018-01-30T00:05:23.629Z,79.00
2018-01-30T00:07:52.388Z,79.00
2018-01-30T00:10:20.412Z,78.90
2018-01-30T00:12:48.401Z,79.30
2018-01-30T00:15:16.388Z,79.50
2018-01-30T00:17:44.391Z,78.80
2018-01-30T00:20:12.406Z,79.80
2018-01-30T00:22:40.397Z,79.60
2018-01-30T00:25:08.407Z,80.70
2018-01-30T00:27:37.234Z,79.60
2018-01-30T00:30:05.212Z,79.70
2018-01-30T00:32:33.228Z,80.00
2018-01-30T00:35:01.228Z,80.30
2018-01-30T00:37:30.063Z,81.20
2018-01-30T00:39:58.307Z,82.00
2018-01-30T00:42:26.313Z,83.60
2018-01-30T00:44:55.068Z,86.80
2018-01-30T00:47:23.072Z,87.20
2018-01-30T00:49:51.069Z,90.00
2018-01-30T00:52:19.072Z,90.60
2018-01-30T00:54:47.831Z,92.20
2018-01-30T00:57:15.851Z,92.10
2018-01-30T00:59:44.619Z,93.20
2018-01-30T01:02:12.648Z,93.20
2018-01-30T01:04:41.412Z,91.10
2018-01-30T01:07:09.400Z,91.10
2018-01-30T01:09:37.397Z,92.00
2018-01-30T01:12:05.410Z,92.80
2018-01-30T01:14:33.388Z,93.10
2018-01-30T01:17:01.389Z,93.40
2018-01-30T01:19:29.396Z,93.20
2018-01-30T01:21:58.060Z,93.00
2018-01-30T01:24:26.073Z,92.00
2018-01-30T01:26:54.074Z,92.00
2018-01-30T01:29:22.060Z,91.50
2018-01-30T01:31:50.069Z,91.40
2018-01-30T01:34:18.842Z,91.00
2018-01-30T01:36:46.880Z,91.00
2018-01-30T01:39:14.925Z,90.90
2018-01-30T01:41:42.981Z,90.30
2018-01-30T01:44:11.008Z,91.00
2018-01-30T01:46:39.828Z,89.30
2018-01-30T01:49:07.872Z,89.30
2018-01-30T01:51:35.921Z,90.00
2018-01-30T01:54:03.968Z,90.40
2018-01-30T01:56:32.063Z,90.20
2018-01-30T01:59:00.097Z,90.20
2018-01-30T02:01:28.154Z,89.30
2018-01-30T02:03:56.200Z,90.10
2018-01-30T02:06:25.012Z,88.50
2018-01-30T02:08:53.074Z,88.40
2018-01-30T02:11:21.120Z,89.20
2018-01-30T02:13:49.161Z,87.90
2018-01-30T02:16:18.032Z,89.30
2018-01-30T02:18:46.076Z,89.30
2018-01-30T02:21:14.102Z,88.30
2018-01-30T02:23:42.148Z,86.90
2018-01-30T02:26:10.188Z,88.40
2018-01-30T02:28:39.012Z,88.90
2018-01-30T02:31:07.086Z,88.80
2018-01-30T02:33:35.132Z,89.30
2018-01-30T02:36:03.177Z,88.90
2018-01-30T02:38:32.208Z,89.30
2018-01-30T02:41:00.264Z,88.50
2018-01-30T02:43:28.307Z,87.90
2018-01-30T02:45:57.124Z,89.90
2018-01-30T02:48:25.937Z,89.60
2018-01-30T02:50:53.980Z,89.50
2018-01-30T02:53:22.013Z,89.30
2018-01-30T02:55:50.063Z,89.30
2018-01-30T02:58:19.154Z,89.30
2018-01-30T03:00:47.177Z,89.30
2018-01-30T03:03:15.224Z,88.70
2018-01-30T03:05:43.280Z,87.80
2018-01-30T03:08:11.313Z,89.30
2018-01-30T03:10:40.139Z,89.30
2018-01-30T03:13:08.199Z,89.20
2018-01-30T03:15:37.000Z,89.20
2018-01-30T03:18:05.830Z,88.40
2018-01-30T03:20:33.868Z,88.20
2018-01-30T03:23:01.892Z,89.20
2018-01-30T03:25:29.937Z,89.00
2018-01-30T03:27:58.735Z,83.40
2018-01-30T03:30:28.285Z,74.90
2018-01-30T03:32:56.377Z,75.60
2018-01-30T03:35:24.408Z,70.70
2018-01-30T03:37:52.464Z,68.70
2018-01-30T03:40:20.515Z,68.50
2018-01-30T03:42:49.304Z,65.60
2018-01-30T03:45:18.116Z,67.70
2018-01-30T03:47:46.168Z,67.00
2018-01-30T03:50:14.192Z,66.40
2018-01-30T03:52:42.249Z,68.50
2018-01-30T03:55:11.044Z,69.00
2018-01-30T03:57:39.087Z,68.80
2018-01-30T04:00:07.144Z,71.50
2018-01-30T04:02:35.180Z,69.20
2018-01-30T04:05:03.249Z,69.70
2018-01-30T04:07:31.289Z,69.50
2018-01-30T04:10:00.096Z,69.50
2018-01-30T04:12:28.152Z,69.50
2018-01-30T04:14:56.188Z,70.70
2018-01-30T04:17:24.248Z,70.10
2018-01-30T04:19:53.057Z,70.30
2018-01-30T04:22:21.088Z,70.30
2018-01-30T04:24:49.141Z,71.60
2018-01-30T04:27:17.164Z,71.80
2018-01-30T04:29:45.216Z,71.90
2018-01-30T04:32:13.327Z,72.40
2018-01-30T04:34:41.359Z,71.50
2018-01-30T04:37:09.417Z,71.70
2018-01-30T04:39:38.228Z,72.10
2018-01-30T04:42:07.015Z,72.70
2018-01-30T04:44:35.843Z,72.30
2018-01-30T04:47:03.888Z,72.30
2018-01-30T04:49:31.916Z,72.10
2018-01-30T04:51:59.961Z,71.30
2018-01-30T04:54:28.016Z,71.20
2018-01-30T04:56:56.056Z,70.60
2018-01-30T04:59:24.405Z,71.50
2018-01-30T05:01:52.461Z,71.90
2018-01-30T05:04:20.484Z,71.90
2018-01-30T05:06:48.533Z,72.20
2018-01-30T05:09:16.620Z,73.00
2018-01-30T05:11:44.656Z,72.40
2018-01-30T05:14:13.468Z,72.70
2018-01-30T05:16:41.516Z,72.60
2018-01-30T05:19:09.559Z,73.10
2018-01-30T05:21:37.610Z,73.20
2018-01-30T05:24:06.412Z,73.30
2018-01-30T05:26:34.449Z,73.20
2018-01-30T05:29:02.511Z,73.80
2018-01-30T05:31:30.552Z,74.30
2018-01-30T05:33:59.344Z,73.70
2018-01-30T05:36:27.388Z,74.40
2018-01-30T05:38:56.376Z,74.40
2018-01-30T05:41:24.401Z,74.40
2018-01-30T05:43:52.444Z,74.10
2018-01-30T05:46:20.468Z,74.00
2018-01-30T05:48:48.511Z,74.20
2018-01-30T05:51:16.540Z,73.80
2018-01-30T05:53:44.578Z,74.20
2018-01-30T05:56:12.624Z,74.70
2018-01-30T05:58:41.419Z,75.10
2018-01-30T06:01:10.248Z,75.70
2018-01-30T06:03:38.292Z,74.90
2018-01-30T06:06:06.321Z,74.80
2018-01-30T06:08:34.390Z,75.00
2018-01-30T06:11:03.201Z,74.60
2018-01-30T06:13:31.224Z,74.60
2018-01-30T06:15:59.281Z,75.50
2018-01-30T06:18:27.324Z,74.70
2018-01-30T06:20:56.128Z,77.00
2018-01-30T06:23:24.936Z,76.30
2018-01-30T06:25:53.752Z,76.00
2018-01-30T06:28:21.788Z,76.00
2018-01-30T06:30:49.829Z,76.10
2018-01-30T06:33:17.890Z,76.20
2018-01-30T06:35:46.677Z,76.40
2018-01-30T06:38:15.488Z,77.40
2018-01-30T06:40:44.284Z,77.30
2018-01-30T06:43:13.821Z,78.00
2018-01-30T06:45:42.624Z,77.30
2018-01-30T06:48:11.412Z,77.20
2018-01-30T06:50:40.245Z,77.30
2018-01-30T06:53:08.296Z,77.20
2018-01-30T06:55:36.348Z,77.30
2018-01-30T06:58:04.405Z,77.20
2018-01-30T07:00:32.451Z,77.20
2018-01-30T07:03:01.259Z,77.20
2018-01-30T07:05:30.086Z,77.20
2018-01-30T07:07:58.121Z,77.10
2018-01-30T07:10:27.662Z,77.50
2018-01-30T07:12:56.472Z,78.20
2018-01-30T07:15:24.527Z,78.20
2018-01-30T07:17:52.556Z,78.50
2018-01-30T07:20:20.616Z,78.50
2018-01-30T07:22:49.431Z,78.50
2018-01-30T07:25:17.479Z,78.50
2018-01-30T07:27:45.526Z,78.60
2018-01-30T07:30:13.563Z,79.50
2018-01-30T07:32:42.360Z,81.20
2018-01-30T07:35:11.175Z,81.20
2018-01-30T07:37:39.232Z,81.00
2018-01-30T07:40:08.930Z,81.60
2018-01-30T07:42:36.992Z,81.60
2018-01-30T07:45:05.030Z,81.90
2018-01-30T07:47:33.256Z,81.80
2018-01-30T07:50:01.308Z,81.20
2018-01-30T07:52:30.105Z,80.90
2018-01-30T07:54:58.929Z,80.90
2018-01-30T07:57:26.971Z,80.90
2018-01-30T07:59:55.006Z,81.30
2018-01-30T08:02:23.061Z,81.50
2018-01-30T08:04:51.881Z,81.30
2018-01-30T08:07:20.673Z,80.90
2018-01-30T08:09:49.487Z,82.40
2018-01-30T08:12:17.535Z,81.70
2018-01-30T08:14:45.556Z,81.40
2018-01-30T08:17:13.620Z,80.80
2018-01-30T08:19:42.440Z,81.20
2018-01-30T08:22:10.480Z,81.20
2018-01-30T08:24:38.528Z,81.10
2018-01-30T08:27:06.589Z,80.40
2018-01-30T08:29:34.629Z,78.70
2018-01-30T08:32:02.677Z,79.40
2018-01-30T08:34:30.736Z,79.20
2018-01-30T08:36:58.768Z,79.10
2018-01-30T08:39:26.828Z,77.80
2018-01-30T08:41:54.884Z,78.30
2018-01-30T08:44:23.687Z,77.90
2018-01-30T08:46:52.496Z,75.70
2018-01-30T08:49:20.558Z,75.70
2018-01-30T08:51:48.569Z,76.70
2018-01-30T08:54:16.628Z,77.10
2018-01-30T08:56:45.444Z,75.70
2018-01-30T08:59:14.240Z,75.50
2018-01-30T09:01:43.052Z,75.20
2018-01-30T09:04:11.101Z,75.10
2018-01-30T09:06:39.156Z,73.60
2018-01-30T09:09:08.013Z,73.00
2018-01-30T09:11:36.816Z,71.80
2018-01-30T09:14:04.866Z,71.60
2018-01-30T09:16:32.928Z,70.80
2018-01-30T09:19:00.956Z,69.20
2018-01-30T09:21:29.777Z,69.40
2018-01-30T09:23:57.826Z,69.40
2018-01-30T09:26:25.862Z,67.50
2018-01-30T09:28:53.932Z,68.20
2018-01-30T09:31:21.980Z,68.60
2018-01-30T09:33:50.028Z,68.90
2018-01-30T09:36:18.081Z,64.50
2018-01-30T09:38:46.134Z,66.90
2018-01-30T09:41:14.531Z,66.20
2018-01-30T09:43:44.052Z,62.40
2018-01-30T09:46:12.860Z,64.30
2018-01-30T09:48:41.677Z,62.70
2018-01-30T09:51:09.700Z,62.70
2018-01-30T09:53:37.751Z,65.60
2018-01-30T09:56:05.812Z,62.50
2018-01-30T09:58:34.618Z,60.50
2018-01-30T10:01:03.428Z,61.90
2018-01-30T10:03:31.470Z,61.80
2018-01-30T10:05:59.524Z,61.10
2018-01-30T10:08:27.569Z,62.80
2018-01-30T10:10:56.388Z,60.80
2018-01-30T10:13:24.403Z,60.80
2018-01-30T10:15:52.463Z,60.20
2018-01-30T10:18:20.500Z,60.80
2018-01-30T10:20:48.537Z,59.20
2018-01-30T10:23:16.585Z,58.50
2018-01-30T10:25:45.406Z,58.20
2018-01-30T10:28:13.452Z,58.10
2018-01-30T10:30:41.489Z,56.50
2018-01-30T10:33:09.557Z,57.10
2018-01-30T10:35:37.616Z,55.20
2018-01-30T10:38:06.427Z,56.60
2018-01-30T10:40:35.257Z,54.40
2018-01-30T10:43:03.361Z,54.20
2018-01-30T10:45:31.384Z,53.90
2018-01-30T10:48:00.197Z,55.10
2018-01-30T10:50:29.015Z,54.40
2018-01-30T10:52:57.037Z,54.30
2018-01-30T10:55:25.085Z,56.70
2018-01-30T10:57:53.152Z,54.60
2018-01-30T11:00:21.961Z,54.50
2018-01-30T11:02:50.773Z,54.80
2018-01-30T11:05:18.833Z,54.80
2018-01-30T11:07:47.625Z,55.50
2018-01-30T11:10:16.443Z,55.00
2018-01-30T11:12:45.253Z,52.70
2018-01-30T11:15:13.280Z,52.50
2018-01-30T11:17:41.328Z,52.30
2018-01-30T11:20:09.376Z,52.60
2018-01-30T11:22:38.176Z,53.30
2018-01-30T11:25:06.237Z,53.20
2018-01-30T11:27:34.282Z,52.70
2018-01-30T11:30:02.317Z,50.90
2018-01-30T11:32:30.355Z,50.70
2018-01-30T11:34:58.417Z,50.90
2018-01-30T11:37:27.208Z,50.80
2018-01-30T11:39:56.028Z,50.00
2018-01-30T11:42:24.076Z,50.00
2018-01-30T11:44:52.108Z,48.70
2018-01-30T11:47:20.152Z,48.80
2018-01-30T11:49:48.975Z,47.80
2018-01-30T11:52:17.768Z,47.70
2018-01-30T11:54:46.581Z,47.20
2018-01-30T11:57:14.623Z,47.00
2018-01-30T11:59:42.659Z,47.90
2018-01-30T12:02:10.700Z,46.70
2018-01-30T12:04:38.754Z,48.60
2018-01-30T12:07:06.804Z,46.90
2018-01-30T12:09:35.599Z,46.00
2018-01-30T12:12:03.633Z,46.00
2018-01-30T12:14:31.701Z,45.30
2018-01-30T12:16:59.761Z,43.60
2018-01-30T12:19:27.808Z,43.80
2018-01-30T12:21:55.851Z,45.20
2018-01-30T12:24:23.908Z,43.20
2018-01-30T12:26:51.943Z,42.60
2018-01-30T12:29:20.004Z,40.80
2018-01-30T12:31:48.047Z,42.90
2018-01-30T12:34:16.860Z,41.90
2018-01-30T12:36:44.912Z,41.80
2018-01-30T12:39:13.764Z,42.20
2018-01-30T12:41:41.849Z,43.10
2018-01-30T12:44:09.888Z,41.90
2018-01-30T12:46:38.726Z,41.20
2018-01-30T12:49:06.788Z,41.20
2018-01-30T12:51:34.931Z,40.80
2018-01-30T12:54:03.674Z,41.00
2018-01-30T12:56:32.510Z,42.90
2018-01-30T12:59:00.556Z,42.90
2018-01-30T13:01:29.359Z,39.40
2018-01-30T13:03:58.168Z,40.20
2018-01-30T13:06:26.232Z,40.10
2018-01-30T13:08:54.260Z,41.80
2018-01-30T13:11:22.309Z,40.10
2018-01-30T13:13:51.120Z,42.80
2018-01-30T13:16:19.166Z,42.80
2018-01-30T13:18:47.212Z,38.70
2018-01-30T13:21:15.259Z,40.00
2018-01-30T13:23:44.073Z,40.90
2018-01-30T13:26:12.120Z,40.90
2018-01-30T13:28:40.171Z,40.90
2018-01-30T13:31:08.195Z,40.70
2018-01-30T13:33:36.247Z,40.20
2018-01-30T13:36:04.306Z,40.50
2018-01-30T13:38:32.337Z,41.00
2018-01-30T13:41:00.398Z,42.00
2018-01-30T13:43:28.444Z,39.50
2018-01-30T13:45:56.488Z,39.80
2018-01-30T13:48:24.540Z,41.80
2018-01-30T13:50:52.585Z,42.00
2018-01-30T13:53:21.376Z,43.10
2018-01-30T13:55:50.197Z,42.50
2018-01-30T13:58:18.239Z,42.40
2018-01-30T14:00:46.267Z,42.70
2018-01-30T14:03:14.316Z,43.80
2018-01-30T14:05:42.371Z,43.30
2018-01-30T14:08:10.404Z,43.00
2018-01-30T14:10:39.273Z,42.70
2018-01-30T14:13:07.368Z,42.70
2018-01-30T14:15:36.197Z,43.40
2018-01-30T14:18:05.072Z,42.80
2018-01-30T14:20:33.138Z,41.60
2018-01-30T14:23:01.917Z,41.50
2018-01-30T14:25:29.972Z,41.10
2018-01-30T14:27:58.784Z,41.80
2018-01-30T14:30:26.804Z,42.60
2018-01-30T14:32:54.873Z,41.60
2018-01-30T14:35:22.921Z,43.40
2018-01-30T14:37:51.720Z,43.80
2018-01-30T14:40:20.549Z,45.50
2018-01-30T14:42:48.608Z,45.50
2018-01-30T14:45:17.400Z,45.30
2018-01-30T14:47:46.211Z,45.90
2018-01-30T14:50:15.047Z,46.70
2018-01-30T14:52:43.068Z,46.60
2018-01-30T14:55:11.132Z,47.30
2018-01-30T14:57:39.189Z,45.80
2018-01-30T15:00:07.229Z,46.20
2018-01-30T15:02:35.286Z,46.60
2018-01-30T15:05:03.316Z,47.70
2018-01-30T15:07:32.172Z,47.20
2018-01-30T15:10:01.185Z,47.30
2018-01-30T15:12:29.216Z,46.10
2018-01-30T15:14:57.256Z,46.60
2018-01-30T15:17:25.310Z,46.20
2018-01-30T15:19:53.380Z,46.50
2018-01-30T15:22:21.420Z,46.10
2018-01-30T15:24:49.467Z,45.20
2018-01-30T15:27:17.505Z,46.30
2018-01-30T15:29:46.324Z,46.90
2018-01-30T15:32:14.372Z,46.80
2018-01-30T15:34:42.404Z,48.70
2018-01-30T15:37:10.456Z,46.40
2018-01-30T15:39:38.515Z,47.10
2018-01-30T15:42:06.571Z,46.70
2018-01-30T15:44:34.642Z,47.60
2018-01-30T15:47:02.693Z,48.20
2018-01-30T15:49:32.297Z,48.80
2018-01-30T15:52:00.335Z,48.80
2018-01-30T15:54:28.398Z,50.60
2018-01-30T15:56:57.197Z,49.40
2018-01-30T15:59:25.247Z,49.40
2018-01-30T16:01:53.264Z,49.70
2018-01-30T16:04:21.322Z,50.40
2018-01-30T16:06:49.368Z,49.90
2018-01-30T16:09:17.399Z,50.50
2018-01-30T16:11:46.221Z,51.60
2018-01-30T16:14:14.267Z,51.60
2018-01-30T16:16:42.294Z,51.80
2018-01-30T16:19:10.407Z,52.70
2018-01-30T16:21:38.470Z,52.20
2018-01-30T16:24:06.507Z,52.00
2018-01-30T16:26:34.552Z,52.60
2018-01-30T16:29:02.601Z,52.90
2018-01-30T16:31:30.633Z,53.00
2018-01-30T16:33:58.699Z,53.00
2018-01-30T16:36:26.732Z,53.60
2018-01-30T16:38:55.531Z,54.10
2018-01-30T16:41:24.349Z,55.30
2018-01-30T16:43:53.185Z,56.30
2018-01-30T16:46:21.208Z,56.10
2018-01-30T16:48:49.251Z,56.00
2018-01-30T16:51:17.300Z,56.40
2018-01-30T16:53:46.109Z,57.40
2018-01-30T16:56:14.916Z,58.30
2018-01-30T16:58:42.972Z,58.30
2018-01-30T17:01:11.774Z,60.90
2018-01-30T17:03:40.717Z,61.00
2018-01-30T17:06:08.760Z,60.90
2018-01-30T17:08:36.812Z,61.40
2018-01-30T17:11:04.873Z,61.60
2018-01-30T17:13:32.892Z,61.70
2018-01-30T17:16:00.944Z,62.90
2018-01-30T17:18:28.992Z,62.90
2018-01-30T17:20:57.021Z,63.60
2018-01-30T17:23:25.083Z,64.20
2018-01-30T17:25:53.120Z,65.00
2018-01-30T17:28:21.221Z,65.80
2018-01-30T17:30:50.045Z,68.10
2018-01-30T17:33:18.084Z,68.10
2018-01-30T17:35:46.124Z,68.00
2018-01-30T17:38:14.185Z,68.60
2018-01-30T17:40:42.976Z,69.60
2018-01-30T17:43:11.948Z,69.50
2018-01-30T17:45:40.000Z,69.50
2018-01-30T17:48:08.056Z,69.10
2018-01-30T17:50:36.894Z,69.20
2018-01-30T17:53:04.933Z,69.10
2018-01-30T17:55:33.803Z,67.90
2018-01-30T17:58:01.832Z,67.80
2018-01-30T18:00:30.623Z,67.80
2018-01-30T18:02:59.440Z,69.30
2018-01-30T18:05:27.498Z,69.20
2018-01-30T18:07:55.519Z,70.00
2018-01-30T18:10:23.590Z,70.00
2018-01-30T18:12:52.394Z,71.70
2018-01-30T18:15:20.436Z,71.70
2018-01-30T18:17:48.488Z,72.40
2018-01-30T18:20:16.541Z,72.30
2018-01-30T18:22:45.358Z,71.60
2018-01-30T18:25:13.401Z,71.50
2018-01-30T18:27:41.456Z,71.50
2018-01-30T18:30:09.534Z,72.30
2018-01-30T18:32:37.596Z,72.40
2018-01-30T18:35:05.700Z,72.30
2018-01-30T18:37:33.728Z,73.50
2018-01-30T18:40:02.546Z,74.00
2018-01-30T18:42:31.348Z,74.30
2018-01-30T18:45:00.332Z,74.30
2018-01-30T18:47:28.388Z,74.40
2018-01-30T18:49:56.440Z,74.90
2018-01-30T18:52:24.491Z,74.70
2018-01-30T18:54:53.456Z,74.80
2018-01-30T18:57:21.500Z,74.70
2018-01-30T18:59:49.539Z,74.70
2018-01-30T19:02:17.584Z,74.20
2018-01-30T19:04:45.631Z,75.60
2018-01-30T19:07:14.809Z,75.70
2018-01-30T19:09:42.857Z,75.50
2018-01-30T19:12:10.904Z,75.60
2018-01-30T19:14:38.935Z,75.50
2018-01-30T19:17:07.008Z,76.00
2018-01-30T19:19:35.073Z,75.90
2018-01-30T19:22:03.868Z,75.40
2018-01-30T19:24:32.705Z,75.40
2018-01-30T19:27:01.008Z,75.30
2018-01-30T19:29:29.056Z,76.00
2018-01-30T19:31:57.636Z,76.70
2018-01-30T19:34:26.444Z,77.30
2018-01-30T19:36:55.349Z,77.60
2018-01-30T19:39:24.169Z,77.60
2018-01-30T19:41:52.219Z,77.50
2018-01-30T19:44:21.011Z,77.60
2018-01-30T19:46:50.374Z,77.60
2018-01-30T19:49:18.437Z,78.60
2018-01-30T19:51:47.232Z,79.10
2018-01-30T19:54:16.050Z,79.50
2018-01-30T19:56:44.101Z,79.50
2018-01-30T19:59:12.190Z,80.70
2018-01-30T20:01:40.347Z,81.40
2018-01-30T20:04:08.449Z,82.00
2018-01-30T20:06:36.557Z,81.30
2018-01-30T20:09:05.428Z,81.40
2018-01-30T20:11:33.514Z,81.30
2018-01-30T20:14:01.666Z,80.50
2018-01-30T20:16:29.763Z,79.70
2018-01-30T20:18:58.521Z,79.30
2018-01-30T20:21:27.382Z,78.50
2018-01-30T20:23:55.535Z,78.30
2018-01-30T20:26:29.292Z,79.00
2018-01-30T20:28:57.419Z,79.10
2018-01-30T20:31:26.232Z,82.30
2018-01-30T20:33:54.264Z,82.20
2018-01-30T20:36:22.461Z,82.80
2018-01-30T20:38:52.074Z,83.20
2018-01-30T20:41:20.088Z,83.00
2018-01-30T20:43:48.920Z,82.10
2018-01-30T20:46:17.013Z,82.00
2018-01-30T20:48:45.048Z,82.30
2018-01-30T20:51:13.880Z,83.00
2018-01-30T20:53:41.929Z,82.10
2018-01-30T20:56:10.023Z,81.90
2018-01-30T20:58:38.864Z,82.00
2018-01-30T21:01:06.967Z,82.00
2018-01-30T21:03:34.988Z,82.60
2018-01-30T21:06:03.798Z,83.10
2018-01-30T21:08:32.600Z,83.00
2018-01-30T21:11:01.400Z,83.00
2018-01-30T21:13:30.212Z,83.10
2018-01-30T21:15:58.263Z,83.00
2018-01-30T21:18:26.293Z,82.90
2018-01-30T21:20:54.327Z,83.00
2018-01-30T21:23:22.380Z,82.90
2018-01-30T21:25:50.404Z,83.70
2018-01-30T21:28:18.460Z,83.40
2018-01-30T21:30:46.504Z,84.20
2018-01-30T21:33:14.531Z,85.10
2018-01-30T21:35:42.580Z,85.90
2018-01-30T21:38:10.639Z,86.70
2018-01-30T21:40:39.436Z,85.90
2018-01-30T21:43:08.256Z,86.50
2018-01-30T21:45:36.313Z,86.40
2018-01-30T21:48:04.356Z,86.80
2018-01-30T21:50:32.408Z,85.80
2018-01-30T21:53:00.464Z,85.40
2018-01-30T21:55:28.499Z,85.60
2018-01-30T21:57:56.548Z,85.40
2018-01-30T22:00:25.340Z,84.60
2018-01-30T22:02:54.147Z,84.70
2018-01-30T22:05:22.961Z,84.80
2018-01-30T22:07:50.993Z,84.70
2018-01-30T22:10:19.053Z,84.60
2018-01-30T22:12:47.118Z,84.80
2018-01-30T22:15:15.909Z,85.20
2018-01-30T22:17:44.736Z,85.70
2018-01-30T22:20:12.780Z,85.60
2018-01-30T22:22:41.568Z,85.90
2018-01-30T22:25:11.220Z,85.40
2018-01-30T22:27:40.051Z,85.40
2018-01-30T22:30:08.087Z,85.40
2018-01-30T22:32:36.143Z,85.10
2018-01-30T22:35:04.181Z,84.50
2018-01-30T22:37:32.259Z,83.80
2018-01-30T22:40:00.308Z,83.10
2018-01-30T22:42:28.340Z,82.90
2018-01-30T22:44:56.400Z,82.90
